Don Miguel Hidalgo y Costilla International Airport

MMGL · 哈利斯科州, 墨西哥

METAR MMGL · Don Miguel Hidalgo Y Costilla International Airport

罗盘
风向 的 Don Miguel Hidalgo Y Costilla International Airport 2/20
风: 0 kt, 0 beaufort


改变
0 1.000 2.000 3.000 4.000 5.000
没有云
METAR MMGL 080446Z 00000KT 8SM SKC 18/11 A3027

METAR Don Miguel Hidalgo Y Costilla International Airport - MMGL/GDL

Don Miguel Hidalgo Y Costilla International Airport是,墨西哥中的大型机场。 该机场有2条跑道: 2/20 和 11/29. 该领域的国际民航组织标志是MMGL 它的国际航空运输协会代码是GDL.

这份报告是针对2022年12月7日 22:46, 当地时间在Don Miguel Hidalgo Y Costilla International Airport进行的。

机场观察

可变方向的风很小或没有风。

可见度为8 mi。

有没有云。 没有观察到天花板。

温度和风寒是18 °C。 露点为11 °C,相对湿度为64%。 海平面上的气压为30,27 inHg (QNH)。

白天

今天,太阳从07:17升起,在18:13降落。 这适用于Don Miguel Hidalgo Y Costilla International Airport,世界夏令时可能有所不同。 当地时间与世界标准时间之间的时差为-6 小时。 当前,没有夏令时有效。

公司介绍

在这个机场,你可以找到飞行学校。 本场上唯一已知的公司是Delta México escuela de aviación。

体会

到Vliegles.nl去找飞行课程,跳伞和其他飞行体验。 浏览页面,了解Don Miguel Hidalgo Y Costilla International Airport附近所有可用的活动。 你也可以使用搜索功能来寻找你所在地附近的特定飞行课程、跳伞或其他飞行体验。

跑道

Id 标题 侧风 逆风 侧风 %
2/20 030°-210°
11/29 113°-293°

逆风成分最大的方向会被突出显示,并用于横风计算。 这并不一定意味着这个方向在使用。

乌云

- SKC 没有云

温度 & 天气

温度 18 °C
露点 11 °C
相对湿度 64%
Kp-index 3 (0-9)

白天

日出
07:17 (7:58)
中午
12:45
日落
18:13

小工具

你想在你的网站上有一个关于Don Miguel Hidalgo Y Costilla International Airport的当前航空天气(METAR)的小部件吗?

显示HTML代码

我们和第三方通过cookies跟踪您在我们网站上的互联网行为。如果你继续,我们认为你同意我们的饼干政策